Time;durP1;ratioP1;P1;durP2;ratioP2;P2;SDS_P1;SDS_P2;PMS_P1;PMS_P2;Temp;Humidity;BMP_temperature;BMP_pressure;BME280_temperature;BME280_humidity;BME280_pressure;Samples;Min_cycle;Max_cycle;Signal;HPM_P1;HPM_P2
2022/09/04 00:01:18;;;;;;;3.30;1.70;;;18.00;73.80;;;;;;5077880;28;20805;-71
2022/09/04 00:03:50;;;;;;;4.83;1.80;;;18.00;74.50;;;;;;5077531;28;20442;-72
2022/09/04 00:06:23;;;;;;;3.93;1.70;;;17.90;75.20;;;;;;5077419;28;20488;-72
2022/09/04 00:09:02;;;;;;;6.10;1.83;;;17.90;75.80;;;;;;5078438;28;20457;-72
2022/09/04 00:11:41;;;;;;;2.53;1.40;;;17.80;77.10;;;;;;5077709;28;20503;-72
2022/09/04 00:14:13;;;;;;;2.53;2.00;;;17.80;78.00;;;;;;5077389;28;20516;-72
2022/09/04 00:16:46;;;;;;;4.07;1.70;;;17.80;78.50;;;;;;5077289;28;20442;-71
2022/09/04 00:19:21;;;;;;;2.80;1.67;;;17.70;79.20;;;;;;5077607;28;20463;-72
2022/09/04 00:21:52;;;;;;;2.20;1.30;;;17.70;80.30;;;;;;5077687;28;20521;-72
2022/09/04 00:24:24;;;;;;;3.00;1.90;;;17.60;81.20;;;;;;5077777;28;20454;-71
2022/09/04 00:26:57;;;;;;;2.67;1.30;;;17.60;82.10;;;;;;5077279;28;20530;-72
2022/09/04 00:29:33;;;;;;;2.83;1.90;;;17.60;82.60;;;;;;5076182;28;20510;-72
2022/09/04 00:32:10;;;;;;;2.80;1.70;;;17.50;83.30;;;;;;5076180;28;20836;-72
2022/09/04 00:34:58;;;;;;;2.10;1.90;;;17.50;84.20;;;;;;5076049;28;20442;-72
2022/09/04 00:37:29;;;;;;;1.80;1.50;;;17.50;85.00;;;;;;5075643;28;20955;-72
2022/09/04 00:40:02;;;;;;;1.90;1.47;;;17.50;86.00;;;;;;5076020;28;20549;-72
2022/09/04 00:42:46;;;;;;;3.93;1.80;;;17.40;86.20;;;;;;5075985;28;20443;-71
2022/09/04 00:45:26;;;;;;;2.20;1.40;;;17.50;87.00;;;;;;5076318;28;20442;-71
2022/09/04 00:48:34;;;;;;;5.10;1.70;;;17.40;87.70;;;;;;5076019;28;20449;-71
2022/09/04 00:51:19;;;;;;;4.20;1.80;;;17.40;88.70;;;;;;5075937;28;20450;-72
2022/09/04 00:54:22;;;;;;;2.63;1.60;;;17.40;89.20;;;;;;5076035;28;20747;-71
2022/09/04 00:57:22;;;;;;;7.73;1.57;;;17.30;89.90;;;;;;5075639;28;20532;-71
2022/09/04 01:00:04;;;;;;;2.70;1.93;;;17.30;90.50;;;;;;5076028;28;20496;-72
2022/09/04 01:02:43;;;;;;;2.83;1.60;;;17.20;90.70;;;;;;5075555;28;20446;-71
2022/09/04 01:05:21;;;;;;;1.40;1.30;;;17.20;90.90;;;;;;5075715;28;20453;-70
2022/09/04 01:08:00;;;;;;;1.70;1.50;;;17.20;91.30;;;;;;5075633;28;20470;-70
2022/09/04 01:10:41;;;;;;;1.73;1.33;;;17.10;91.50;;;;;;5076235;28;20477;-70
2022/09/04 01:13:12;;;;;;;4.27;1.90;;;17.10;91.80;;;;;;5075400;28;20570;-69
2022/09/04 01:15:45;;;;;;;2.30;1.63;;;17.10;92.00;;;;;;5075243;28;20497;-70
2022/09/04 01:18:19;;;;;;;3.07;1.40;;;17.20;92.30;;;;;;5075367;28;20833;-70
2022/09/04 01:21:19;;;;;;;3.30;1.50;;;17.20;92.30;;;;;;5075147;28;20982;-70
2022/09/04 01:24:22;;;;;;;1.60;1.40;;;17.20;92.50;;;;;;5075208;28;20491;-69
2022/09/04 01:27:01;;;;;;;2.00;1.53;;;17.20;92.60;;;;;;5014051;28;20437;-70
2022/09/04 01:29:39;;;;;;;5.33;1.80;;;17.20;92.80;;;;;;5013754;28;20875;-70
2022/09/04 01:32:12;;;;;;;1.67;1.57;;;17.20;93.00;;;;;;5013748;28;20456;-71
2022/09/04 01:34:50;;;;;;;4.13;1.10;;;17.20;93.40;;;;;;5013525;28;20632;-70
2022/09/04 01:37:35;;;;;;;1.80;1.20;;;17.20;93.60;;;;;;5013765;28;20447;-70
2022/09/04 01:40:18;;;;;;;1.60;1.40;;;17.20;93.50;;;;;;5013792;28;20543;-71
2022/09/04 01:42:51;;;;;;;1.40;1.30;;;17.20;93.60;;;;;;5014027;28;20524;-70
2022/09/04 01:45:29;;;;;;;1.87;1.40;;;17.20;93.80;;;;;;5013503;28;20908;-71
2022/09/04 01:48:01;;;;;;;5.07;1.70;;;17.20;94.00;;;;;;5013574;28;20621;-71
2022/09/04 01:50:31;;;;;;;2.70;1.30;;;17.10;94.30;;;;;;5013411;28;20511;-70
2022/09/04 01:53:06;;;;;;;1.60;1.10;;;17.10;94.30;;;;;;5013191;28;20457;-70
2022/09/04 01:55:38;;;;;;;1.83;1.33;;;17.10;94.30;;;;;;5013512;28;20849;-70
2022/09/04 01:58:16;;;;;;;5.50;1.67;;;17.10;94.60;;;;;;5012949;28;20567;-70
2022/09/04 02:00:54;;;;;;;1.63;1.23;;;17.10;94.50;;;;;;5040895;28;20460;-70
2022/09/04 02:03:27;;;;;;;1.30;1.17;;;17.10;94.70;;;;;;5074651;28;20532;-70
2022/09/04 02:06:04;;;;;;;2.37;1.20;;;17.10;94.70;;;;;;5074291;28;20945;-70
2022/09/04 02:09:15;;;;;;;3.03;1.47;;;17.00;94.90;;;;;;5074010;28;20521;-70
2022/09/04 02:11:50;;;;;;;2.50;1.20;;;17.00;95.00;;;;;;5013445;28;20539;-70
2022/09/04 02:14:32;;;;;;;3.80;1.60;;;17.00;95.60;;;;;;5013151;28;20591;-69
2022/09/04 02:17:09;;;;;;;1.97;1.10;;;16.90;95.40;;;;;;5013192;28;20495;-70
2022/09/04 02:19:52;;;;;;;2.67;1.20;;;16.90;95.50;;;;;;5013820;28;20496;-69
2022/09/04 02:22:28;;;;;;;1.70;1.43;;;16.80;95.70;;;;;;5013367;28;20488;-70
2022/09/04 02:25:04;;;;;;;2.17;1.40;;;16.80;96.00;;;;;;5013073;28;20472;-70
2022/09/04 02:27:41;;;;;;;1.60;1.20;;;16.80;96.30;;;;;;5012923;28;20473;-70
2022/09/04 02:30:12;;;;;;;3.47;1.33;;;16.70;96.80;;;;;;5013101;28;20520;-70
2022/09/04 02:32:44;;;;;;;3.70;1.47;;;16.70;97.20;;;;;;5013292;28;20445;-70
2022/09/04 02:35:18;;;;;;;4.07;1.77;;;16.60;97.00;;;;;;5012930;28;20461;-70
2022/09/04 02:37:56;;;;;;;1.90;1.27;;;16.60;97.30;;;;;;5012800;28;20617;-69
2022/09/04 02:40:31;;;;;;;1.77;1.33;;;16.60;97.50;;;;;;5012870;28;20481;-70
2022/09/04 02:43:15;;;;;;;2.00;1.20;;;16.60;97.70;;;;;;5012733;28;20537;-70
2022/09/04 02:45:48;;;;;;;1.40;1.20;;;16.60;97.80;;;;;;5012761;28;20524;-71
2022/09/04 02:48:21;;;;;;;2.30;0.90;;;16.60;97.80;;;;;;5051258;28;20546;-70
2022/09/04 02:51:02;;;;;;;1.60;1.33;;;16.60;98.00;;;;;;5074235;28;20438;-70
2022/09/04 02:53:35;;;;;;;1.83;1.23;;;16.60;98.20;;;;;;5073926;28;20528;-70
2022/09/04 02:56:12;;;;;;;2.97;1.40;;;16.60;98.20;;;;;;5074051;28;20529;-70
2022/09/04 02:58:49;;;;;;;3.77;1.40;;;16.60;98.40;;;;;;5073929;28;20498;-70
2022/09/04 03:01:24;;;;;;;2.53;1.43;;;16.60;98.40;;;;;;5074246;28;20470;-70
2022/09/04 03:04:00;;;;;;;2.40;1.43;;;16.60;98.50;;;;;;5073821;28;20917;-69
2022/09/04 03:06:42;;;;;;;2.10;1.40;;;16.50;98.60;;;;;;5073958;28;20470;-70
2022/09/04 03:09:13;;;;;;;2.33;1.50;;;16.50;98.90;;;;;;5073986;28;20470;-70
2022/09/04 03:11:45;;;;;;;2.73;1.63;;;16.50;99.00;;;;;;5073636;28;20474;-70
2022/09/04 03:14:20;;;;;;;1.40;1.07;;;16.50;99.10;;;;;;5073585;28;21003;-70
2022/09/04 03:16:54;;;;;;;2.70;1.50;;;16.40;99.20;;;;;;5073990;28;20496;-70
2022/09/04 03:19:27;;;;;;;1.70;1.33;;;16.40;99.60;;;;;;5076038;28;20572;-70
2022/09/04 03:22:00;;;;;;;1.70;1.33;;;16.40;99.70;;;;;;5077623;28;20628;-70
2022/09/04 03:24:35;;;;;;;1.80;1.43;;;16.40;99.80;;;;;;5077282;28;20453;-70
2022/09/04 03:27:06;;;;;;;1.73;1.40;;;16.40;99.90;;;;;;5077580;28;20521;-70
2022/09/04 03:29:42;;;;;;;1.40;1.00;;;16.30;99.90;;;;;;5077502;28;20540;-70
2022/09/04 03:32:19;;;;;;;1.30;1.10;;;16.30;99.90;;;;;;5077207;28;20438;-70
2022/09/04 03:34:52;;;;;;;5.10;1.30;;;16.30;99.90;;;;;;5077055;28;20533;-69
2022/09/04 03:37:51;;;;;;;5.43;1.40;;;16.20;99.90;;;;;;5076764;28;20882;-70
2022/09/04 03:40:32;;;;;;;1.70;1.27;;;16.20;99.90;;;;;;5077174;28;20462;-70
2022/09/04 03:43:11;;;;;;;1.90;1.40;;;16.20;99.90;;;;;;5077155;28;20457;-70
2022/09/04 03:45:47;;;;;;;2.77;1.13;;;16.10;99.90;;;;;;5076847;28;20899;-70
2022/09/04 03:48:33;;;;;;;1.70;1.60;;;16.10;99.90;;;;;;5077135;28;20528;-70
2022/09/04 03:51:10;;;;;;;1.90;1.50;;;16.10;99.90;;;;;;5076739;28;20499;-70
2022/09/04 03:53:40;;;;;;;2.63;1.30;;;16.00;99.90;;;;;;5076924;28;20442;-70
2022/09/04 03:56:22;;;;;;;1.50;1.00;;;16.10;99.90;;;;;;5076902;28;20458;-70
2022/09/04 03:59:00;;;;;;;1.87;1.30;;;16.00;99.90;;;;;;5076896;28;20557;-70
2022/09/04 04:01:36;;;;;;;1.60;1.30;;;16.00;99.90;;;;;;5076856;28;20583;-70
2022/09/04 04:04:35;;;;;;;1.57;1.30;;;15.90;99.90;;;;;;5076716;28;20887;-70
2022/09/04 04:07:12;;;;;;;1.63;1.30;;;15.90;99.90;;;;;;5015074;28;20499;-70
2022/09/04 04:10:02;;;;;;;1.83;1.10;;;15.80;99.90;;;;;;5015179;28;20484;-70
2022/09/04 04:12:46;;;;;;;1.90;1.27;;;15.80;99.90;;;;;;5015114;28;20492;-70
2022/09/04 04:15:24;;;;;;;2.10;1.30;;;15.80;99.90;;;;;;5014952;28;20524;-70
2022/09/04 04:18:19;;;;;;;4.93;1.17;;;15.70;99.90;;;;;;5014832;28;20452;-70
2022/09/04 04:20:56;;;;;;;1.97;1.30;;;15.70;99.90;;;;;;5014566;28;20516;-70
2022/09/04 04:23:59;;;;;;;1.63;1.10;;;15.70;99.90;;;;;;5014912;28;20506;-69
2022/09/04 04:26:39;;;;;;;2.10;1.30;;;15.60;99.90;;;;;;5014813;28;20441;-71
2022/09/04 04:29:39;;;;;;;3.33;1.40;;;15.60;99.90;;;;;;5015027;28;20452;-70
2022/09/04 04:32:24;;;;;;;3.17;1.50;;;15.60;99.90;;;;;;4975228;28;20536;-70
2022/09/04 04:35:07;;;;;;;2.63;1.30;;;15.50;99.90;;;;;;4975597;28;20454;-70
2022/09/04 04:37:50;;;;;;;1.90;1.47;;;15.50;99.90;;;;;;4976125;28;20458;-71
2022/09/04 04:40:31;;;;;;;2.90;1.30;;;15.40;99.90;;;;;;4975463;28;20474;-71
2022/09/04 04:43:05;;;;;;;2.10;1.30;;;15.40;99.90;;;;;;4975463;28;20462;-70
2022/09/04 04:45:49;;;;;;;2.27;1.50;;;15.40;99.90;;;;;;5014474;28;20480;-70
2022/09/04 04:48:50;;;;;;;1.77;1.50;;;15.40;99.90;;;;;;5014808;28;20449;-71
2022/09/04 04:51:42;;;;;;;1.90;1.40;;;15.40;99.90;;;;;;5014418;28;20531;-70
2022/09/04 04:54:29;;;;;;;3.73;1.40;;;15.40;99.90;;;;;;5014283;28;20472;-70
2022/09/04 04:57:04;;;;;;;1.90;1.20;;;15.40;99.90;;;;;;5014299;28;20437;-71
2022/09/04 04:59:38;;;;;;;2.40;1.47;;;15.40;99.90;;;;;;5014089;28;20464;-70
2022/09/04 05:02:19;;;;;;;3.30;1.70;;;15.40;99.90;;;;;;5014046;28;20463;-70
2022/09/04 05:04:56;;;;;;;2.13;1.60;;;15.40;99.90;;;;;;5014140;28;20449;-70
2022/09/04 05:07:33;;;;;;;1.60;1.50;;;15.40;99.90;;;;;;5017776;28;20445;-70
2022/09/04 05:10:09;;;;;;;2.10;1.27;;;15.40;99.90;;;;;;5075686;28;20446;-70
2022/09/04 05:12:53;;;;;;;1.93;1.20;;;15.40;99.90;;;;;;5075327;28;20908;-70
2022/09/04 05:15:27;;;;;;;6.93;1.57;;;15.40;99.90;;;;;;5075376;28;20466;-70
2022/09/04 05:17:59;;;;;;;1.40;1.00;;;15.50;99.90;;;;;;5075401;28;20537;-70
2022/09/04 05:20:38;;;;;;;1.90;1.30;;;15.50;99.90;;;;;;5074848;28;20462;-70
2022/09/04 05:23:17;;;;;;;2.90;1.40;;;15.50;99.90;;;;;;5075036;28;20529;-70
2022/09/04 05:25:51;;;;;;;3.80;1.50;;;15.50;99.90;;;;;;5074759;28;20533;-70
2022/09/04 05:28:28;;;;;;;1.50;1.17;;;15.50;99.90;;;;;;5074817;28;20961;-70
2022/09/04 05:31:04;;;;;;;1.57;1.30;;;15.50;99.90;;;;;;5075110;28;20443;-71
2022/09/04 05:33:37;;;;;;;2.47;1.47;;;15.50;99.90;;;;;;5075011;28;20774;-71
2022/09/04 05:36:12;;;;;;;2.27;1.27;;;15.50;99.90;;;;;;5074886;28;20892;-71
2022/09/04 05:38:46;;;;;;;3.10;1.50;;;15.50;99.90;;;;;;5074641;28;20474;-71
2022/09/04 05:41:24;;;;;;;1.80;1.40;;;15.50;99.90;;;;;;5075028;28;20481;-71
2022/09/04 05:44:07;;;;;;;2.43;1.40;;;15.50;99.90;;;;;;5074903;28;20470;-71
2022/09/04 05:46:45;;;;;;;2.20;1.50;;;15.60;99.90;;;;;;5074878;28;20443;-70
2022/09/04 05:49:23;;;;;;;1.87;1.30;;;15.60;99.90;;;;;;5074977;28;20544;-70
2022/09/04 05:52:07;;;;;;;3.10;1.60;;;15.60;99.90;;;;;;5074867;28;20787;-70
2022/09/04 05:55:05;;;;;;;2.13;1.67;;;15.70;99.90;;;;;;5074521;28;20549;-71
2022/09/04 05:57:45;;;;;;;2.80;1.30;;;15.70;99.90;;;;;;5074561;28;20902;-71
2022/09/04 06:00:15;;;;;;;2.37;1.37;;;15.80;99.90;;;;;;5074612;28;20556;-71
2022/09/04 06:03:26;;;;;;;4.33;1.50;;;15.80;99.90;;;;;;5074204;28;20464;-71
2022/09/04 06:06:16;;;;;;;2.80;1.60;;;15.80;99.90;;;;;;5074627;28;20549;-71
2022/09/04 06:09:09;;;;;;;1.70;1.60;;;15.80;99.90;;;;;;5013049;28;20589;-71
2022/09/04 06:12:21;;;;;;;3.30;1.70;;;15.90;99.90;;;;;;5012863;28;20560;-71
2022/09/04 06:15:02;;;;;;;1.50;1.40;;;15.90;99.90;;;;;;4973668;28;20577;-71
2022/09/04 06:17:42;;;;;;;3.43;1.57;;;16.00;99.90;;;;;;4973917;28;20828;-71
2022/09/04 06:20:23;;;;;;;3.80;2.13;;;16.10;99.90;;;;;;4973825;28;20570;-71
2022/09/04 06:23:28;;;;;;;4.80;1.67;;;16.20;99.90;;;;;;4973827;28;20450;-70
2022/09/04 06:26:20;;;;;;;2.17;1.50;;;16.20;99.90;;;;;;4935454;29;20547;-70
2022/09/04 06:29:02;;;;;;;2.20;1.67;;;16.30;99.90;;;;;;4935678;29;20475;-70
2022/09/04 06:32:03;;;;;;;3.67;1.50;;;16.30;99.90;;;;;;4935604;29;20445;-71
2022/09/04 06:34:50;;;;;;;4.20;1.87;;;16.40;99.90;;;;;;4935559;29;20519;-71
2022/09/04 06:37:25;;;;;;;3.17;2.10;;;16.50;99.90;;;;;;4935499;29;20473;-71
2022/09/04 06:40:06;;;;;;;2.00;1.80;;;16.50;99.90;;;;;;4935197;29;20591;-71
2022/09/04 06:42:48;;;;;;;1.73;1.60;;;16.50;99.90;;;;;;4935338;29;20551;-71
2022/09/04 06:45:25;;;;;;;2.03;1.80;;;16.60;99.90;;;;;;4941827;29;20552;-71
2022/09/04 06:48:04;;;;;;;3.60;1.80;;;16.60;99.90;;;;;;4954563;29;20495;-71
2022/09/04 06:50:42;;;;;;;5.27;1.70;;;16.60;99.90;;;;;;4954325;29;20972;-71
2022/09/04 06:53:18;;;;;;;3.07;1.93;;;16.70;99.90;;;;;;5012907;28;20548;-71
2022/09/04 06:55:57;;;;;;;3.40;2.47;;;16.70;99.90;;;;;;5016555;28;20468;-71
2022/09/04 06:59:10;;;;;;;1.90;1.60;;;16.80;99.90;;;;;;5016727;28;20488;-70
2022/09/04 07:01:45;;;;;;;5.10;1.97;;;16.80;99.90;;;;;;5035868;28;20466;-70
2022/09/04 07:04:23;;;;;;;3.07;1.87;;;16.90;99.90;;;;;;5036558;28;20920;-71
2022/09/04 07:07:04;;;;;;;2.30;2.07;;;16.90;99.90;;;;;;5036317;28;20542;-71
2022/09/04 07:09:38;;;;;;;2.37;2.17;;;17.00;99.90;;;;;;5036135;28;20809;-70
2022/09/04 07:12:33;;;;;;;5.10;1.87;;;17.10;99.90;;;;;;5036134;28;20563;-70
2022/09/04 07:15:27;;;;;;;3.90;2.03;;;17.10;99.90;;;;;;4977371;28;20462;-70
2022/09/04 07:18:05;;;;;;;3.33;2.30;;;17.20;99.90;;;;;;4977162;28;20497;-71
2022/09/04 07:20:41;;;;;;;3.00;2.07;;;17.20;99.90;;;;;;4976779;28;20478;-70
2022/09/04 07:23:23;;;;;;;2.50;2.30;;;17.30;99.90;;;;;;4976854;28;20847;-70
2022/09/04 07:26:03;;;;;;;9.23;6.60;;;17.40;99.90;;;;;;4977053;28;20923;-70
2022/09/04 07:28:46;;;;;;;4.10;2.67;;;17.40;99.90;;;;;;4976755;28;20533;-71
2022/09/04 07:31:20;;;;;;;3.63;2.37;;;17.50;99.90;;;;;;4976655;28;20952;-71
2022/09/04 07:33:56;;;;;;;3.90;2.60;;;17.60;99.90;;;;;;5015788;28;20441;-70
2022/09/04 07:36:34;;;;;;;2.80;2.53;;;17.70;99.90;;;;;;5015772;28;20762;-70
2022/09/04 07:39:09;;;;;;;4.77;2.73;;;17.80;99.90;;;;;;5015581;28;20547;-71
2022/09/04 07:41:46;;;;;;;4.07;2.53;;;17.80;99.90;;;;;;5015577;28;20631;-72
2022/09/04 07:44:23;;;;;;;2.60;2.40;;;17.90;99.90;;;;;;5015438;28;20535;-71
2022/09/04 07:46:59;;;;;;;3.70;2.63;;;17.90;99.90;;;;;;5015457;28;20437;-71
2022/09/04 07:49:34;;;;;;;3.30;3.00;;;18.00;99.90;;;;;;5015400;28;20441;-71
2022/09/04 07:52:13;;;;;;;4.00;2.60;;;18.10;99.90;;;;;;5051082;28;20454;-72
2022/09/04 07:55:00;;;;;;;4.03;2.40;;;18.20;99.90;;;;;;5076753;28;20847;-72
2022/09/04 07:58:01;;;;;;;6.13;2.57;;;18.20;99.90;;;;;;5076763;28;20990;-72
2022/09/04 08:00:33;;;;;;;3.60;2.60;;;18.40;99.90;;;;;;5015236;28;20485;-72
2022/09/04 08:03:20;;;;;;;5.93;3.90;;;18.50;99.90;;;;;;5015097;28;20938;-72
2022/09/04 08:05:51;;;;;;;3.13;2.67;;;18.50;99.90;;;;;;5013989;28;20920;-72
2022/09/04 08:09:01;;;;;;;2.50;2.30;;;18.60;99.90;;;;;;5015114;28;20455;-71
2022/09/04 08:11:53;;;;;;;3.70;2.60;;;18.80;99.90;;;;;;4976085;28;20490;-72
2022/09/04 08:14:29;;;;;;;3.20;2.90;;;18.80;99.90;;;;;;4975774;28;20498;-72
2022/09/04 08:17:24;;;;;;;3.90;3.37;;;18.90;99.90;;;;;;4975996;28;20454;-72
2022/09/04 08:20:01;;;;;;;3.33;2.70;;;19.00;99.90;;;;;;4975867;28;21104;-72
2022/09/04 08:22:39;;;;;;;6.20;3.40;;;19.20;99.90;;;;;;4976038;28;20796;-71
2022/09/04 08:25:25;;;;;;;3.57;3.23;;;19.20;99.90;;;;;;4975970;28;20545;-71
2022/09/04 08:28:16;;;;;;;2.90;2.60;;;19.30;99.90;;;;;;4975642;28;20529;-71
2022/09/04 08:30:53;;;;;;;2.93;2.63;;;19.40;99.90;;;;;;4976175;28;20557;-71
2022/09/04 08:33:47;;;;;;;2.90;2.60;;;19.50;99.90;;;;;;4975610;28;20558;-71
2022/09/04 08:36:24;;;;;;;3.30;3.00;;;19.60;99.90;;;;;;4982715;28;20604;-71
2022/09/04 08:39:03;;;;;;;4.10;2.70;;;19.60;99.90;;;;;;5014439;28;20480;-71
2022/09/04 08:42:14;;;;;;;4.47;3.13;;;19.70;99.90;;;;;;5014077;28;20538;-71
2022/09/04 08:45:31;;;;;;;3.97;3.07;;;19.80;99.90;;;;;;5021993;28;20528;-71
2022/09/04 08:48:40;;;;;;;3.40;2.77;;;20.00;99.90;;;;;;5014620;28;20504;-72
2022/09/04 08:51:40;;;;;;;3.10;2.80;;;20.00;99.90;;;;;;5015301;28;20508;-71
2022/09/04 08:54:40;;;;;;;2.83;2.63;;;20.20;99.90;;;;;;4975018;28;20478;-72
2022/09/04 08:57:43;;;;;;;4.20;3.77;;;20.30;99.90;;;;;;4975034;28;20514;-71
2022/09/04 09:00:15;;;;;;;3.37;3.00;;;20.40;99.90;;;;;;4974599;28;20682;-71
2022/09/04 09:03:27;;;;;;;4.57;2.60;;;20.50;99.90;;;;;;4975017;28;20550;-71
2022/09/04 09:06:32;;;;;;;4.10;3.30;;;20.70;99.90;;;;;;4974790;28;20813;-71
2022/09/04 09:09:25;;;;;;;2.90;2.60;;;20.80;99.90;;;;;;4974818;28;20467;-71
2022/09/04 09:12:31;;;;;;;3.40;3.10;;;21.00;99.90;;;;;;4966588;28;20459;-71
2022/09/04 09:15:23;;;;;;;2.97;2.77;;;21.00;99.90;;;;;;4974715;28;20582;-71
2022/09/04 09:18:01;;;;;;;3.13;2.80;;;21.20;99.90;;;;;;4974320;28;20459;-71
2022/09/04 09:20:30;;;;;;;2.90;2.60;;;21.30;99.90;;;;;;4974583;28;20870;-71
2022/09/04 09:23:18;;;;;;;3.77;1.90;;;21.40;99.90;;;;;;4974577;28;20458;-71
2022/09/04 09:26:08;;;;;;;2.90;2.57;;;21.50;99.90;;;;;;5013443;28;20468;-71
2022/09/04 09:29:12;;;;;;;2.40;2.20;;;21.60;99.90;;;;;;5013611;28;20480;-72
2022/09/04 09:32:13;;;;;;;4.60;2.17;;;21.70;99.90;;;;;;5057675;28;21002;-72
2022/09/04 09:35:21;;;;;;;2.77;2.43;;;21.70;99.90;;;;;;5075046;28;20899;-71
2022/09/04 09:38:19;;;;;;;3.10;2.30;;;21.90;99.90;;;;;;5074658;28;20607;-72
2022/09/04 09:41:21;;;;;;;2.50;2.03;;;22.00;99.90;;;;;;5075137;28;20466;-72
2022/09/04 09:44:36;;;;;;;2.43;2.17;;;22.10;99.90;;;;;;5075285;28;20716;-72
2022/09/04 09:47:25;;;;;;;3.43;2.30;;;22.20;99.90;;;;;;4954807;28;20470;-72
2022/09/04 09:50:27;;;;;;;4.30;2.13;;;22.20;99.90;;;;;;4954821;29;20440;-70
2022/09/04 09:53:27;;;;;;;2.30;2.10;;;22.30;99.90;;;;;;4897760;29;20655;-70
2022/09/04 09:56:17;;;;;;;3.80;2.00;;;22.30;99.90;;;;;;4897734;29;20466;-71
2022/09/04 09:59:31;;;;;;;3.50;2.40;;;22.40;99.90;;;;;;4897669;29;20457;-71
2022/09/04 10:02:30;;;;;;;5.37;3.10;;;22.50;99.90;;;;;;4897591;29;20485;-71
2022/09/04 10:05:36;;;;;;;2.90;2.00;;;22.50;99.90;;;;;;4860351;29;20464;-71
2022/09/04 10:08:29;;;;;;;3.30;2.60;;;22.60;99.90;;;;;;4860765;29;20445;-72
2022/09/04 10:11:17;;;;;;;3.27;2.20;;;22.60;99.90;;;;;;4860609;29;20559;-71
2022/09/04 10:14:20;;;;;;;2.47;2.27;;;22.70;99.90;;;;;;4863256;29;20524;-72
2022/09/04 10:17:15;;;;;;;3.43;2.50;;;22.80;99.90;;;;;;4769712;30;20480;-72
2022/09/04 10:20:28;;;;;;;2.43;2.23;;;22.90;99.90;;;;;;4769702;30;20480;-72
2022/09/04 10:23:26;;;;;;;4.00;2.87;;;23.00;99.90;;;;;;4737549;29;20874;-72
2022/09/04 10:26:14;;;;;;;3.20;2.33;;;23.10;99.90;;;;;;4805466;29;20459;-72
2022/09/04 10:29:14;;;;;;;2.33;2.13;;;23.20;99.90;;;;;;4806780;29;20929;-72
2022/09/04 10:32:22;;;;;;;3.53;2.50;;;23.40;99.90;;;;;;4845513;29;20488;-71
2022/09/04 10:35:10;;;;;;;4.53;2.60;;;23.50;99.90;;;;;;4791173;30;20550;-72
2022/09/04 10:38:01;;;;;;;3.37;2.40;;;23.60;99.90;;;;;;4790738;30;20547;-72
2022/09/04 10:40:37;;;;;;;5.43;3.67;;;23.70;99.90;;;;;;4790859;30;20532;-71
2022/09/04 10:43:37;;;;;;;3.50;2.97;;;23.80;99.90;;;;;;4827378;29;20480;-71
2022/09/04 10:46:10;;;;;;;2.67;2.43;;;23.90;99.90;;;;;;4826865;29;21020;-71
2022/09/04 10:49:00;;;;;;;2.90;2.60;;;24.00;99.90;;;;;;4827022;29;20541;-71
2022/09/04 10:51:55;;;;;;;3.20;2.20;;;24.20;99.90;;;;;;4826906;29;20875;-71
2022/09/04 10:55:07;;;;;;;2.30;2.10;;;24.30;99.40;;;;;;4893107;29;20564;-71
2022/09/04 10:57:53;;;;;;;4.40;2.17;;;24.40;98.50;;;;;;4940325;29;20538;-72
2022/09/04 11:00:22;;;;;;;3.60;2.33;;;24.50;98.00;;;;;;4957902;29;20472;-72
2022/09/04 11:03:16;;;;;;;3.83;2.37;;;24.70;97.00;;;;;;4957977;29;20558;-72
2022/09/04 11:06:15;;;;;;;2.20;2.00;;;24.70;95.50;;;;;;4957835;29;20506;-71
2022/09/04 11:09:17;;;;;;;2.40;2.20;;;24.70;95.60;;;;;;4957649;29;20546;-71
2022/09/04 11:12:11;;;;;;;2.30;2.10;;;24.80;95.50;;;;;;4987008;28;20449;-72
2022/09/04 11:15:25;;;;;;;3.40;2.20;;;24.80;95.70;;;;;;4900760;29;20573;-71
2022/09/04 11:18:18;;;;;;;3.07;2.23;;;25.00;95.70;;;;;;4863182;29;20870;-71
2022/09/04 11:21:17;;;;;;;2.30;2.10;;;25.10;93.70;;;;;;4862851;29;20521;-71
2022/09/04 11:24:14;;;;;;;3.50;2.30;;;25.20;93.00;;;;;;4862883;29;20927;-71
2022/09/04 11:27:14;;;;;;;7.37;3.17;;;25.40;91.90;;;;;;4862889;29;20464;-71
2022/09/04 11:30:02;;;;;;;2.70;1.93;;;25.70;92.30;;;;;;4919228;29;20505;-71
2022/09/04 11:32:56;;;;;;;3.50;2.30;;;26.00;91.70;;;;;;4919305;29;20461;-71
2022/09/04 11:35:54;;;;;;;2.40;2.10;;;26.50;90.90;;;;;;4918945;29;20465;-72
2022/09/04 11:38:55;;;;;;;2.17;1.97;;;27.10;90.00;;;;;;4919013;29;20560;-72
2022/09/04 11:41:44;;;;;;;3.47;2.30;;;27.50;85.60;;;;;;4918272;29;20495;-71
2022/09/04 11:44:45;;;;;;;2.33;2.10;;;27.90;82.50;;;;;;4918736;29;20450;-71
2022/09/04 11:47:57;;;;;;;2.20;2.00;;;28.30;78.00;;;;;;4918563;29;20576;-70
2022/09/04 11:50:41;;;;;;;2.27;2.00;;;28.60;75.80;;;;;;4900071;29;20462;-72
2022/09/04 11:53:38;;;;;;;5.90;1.80;;;28.60;72.20;;;;;;4943701;29;20767;-72
2022/09/04 11:56:39;;;;;;;3.13;2.03;;;29.20;72.50;;;;;;5015105;28;20476;-72
2022/09/04 11:59:32;;;;;;;3.03;2.60;;;30.20;65.00;;;;;;5016888;28;20456;-72
2022/09/04 12:02:32;;;;;;;3.97;2.30;;;31.10;60.30;;;;;;5016985;28;20497;-72
2022/09/04 12:05:14;;;;;;;2.93;2.27;;;31.80;57.70;;;;;;4957472;29;20467;-72
2022/09/04 12:07:55;;;;;;;4.43;1.90;;;32.60;55.50;;;;;;4957117;29;20862;-71
2022/09/04 12:10:46;;;;;;;2.67;2.43;;;33.20;52.50;;;;;;4956181;29;20499;-71
2022/09/04 12:13:39;;;;;;;3.07;2.10;;;34.00;51.10;;;;;;4961350;28;20796;-72
2022/09/04 12:16:41;;;;;;;2.90;2.67;;;34.70;45.70;;;;;;4975390;28;20562;-71
2022/09/04 12:19:44;;;;;;;2.13;1.93;;;35.00;44.10;;;;;;4888161;29;20931;-72
2022/09/04 12:22:50;;;;;;;2.30;2.10;;;35.20;42.60;;;;;;4898990;29;20565;-72
2022/09/04 12:25:43;;;;;;;3.00;2.70;;;35.30;41.60;;;;;;4933395;29;20519;-72
2022/09/04 12:28:49;;;;;;;2.73;2.53;;;35.70;40.10;;;;;;4936602;29;20495;-72
2022/09/04 12:31:41;;;;;;;3.63;2.70;;;35.80;39.00;;;;;;4880030;29;20524;-72
2022/09/04 12:34:40;;;;;;;3.20;2.20;;;36.00;38.80;;;;;;4880124;29;20452;-71
2022/09/04 12:37:35;;;;;;;2.63;2.43;;;35.60;36.90;;;;;;4861103;29;21011;-71
2022/09/04 12:40:25;;;;;;;2.93;2.60;;;35.70;37.80;;;;;;4861884;29;20536;-72
2022/09/04 12:42:59;;;;;;;3.50;2.63;;;36.00;37.30;;;;;;4875767;29;20569;-72
2022/09/04 12:45:31;;;;;;;2.70;2.47;;;36.60;36.90;;;;;;4879712;29;20482;-72
2022/09/04 12:48:09;;;;;;;2.23;2.03;;;37.10;34.50;;;;;;4879955;29;20505;-72
2022/09/04 12:50:43;;;;;;;2.83;2.10;;;37.20;33.50;;;;;;4879389;29;20477;-72
2022/09/04 12:53:34;;;;;;;2.60;2.40;;;37.10;33.20;;;;;;4879590;29;20866;-72
2022/09/04 12:56:10;;;;;;;2.40;2.20;;;36.30;32.70;;;;;;4851530;29;20463;-72
2022/09/04 12:58:52;;;;;;;1.93;1.83;;;36.00;32.90;;;;;;4861151;29;20991;-71
2022/09/04 13:01:30;;;;;;;2.50;1.90;;;35.90;33.90;;;;;;4861018;29;20498;-72
2022/09/04 13:04:05;;;;;;;4.27;2.17;;;36.00;32.80;;;;;;4860849;29;20448;-71
2022/09/04 13:06:43;;;;;;;2.83;2.40;;;36.20;33.40;;;;;;4860977;29;20827;-72
2022/09/04 13:09:22;;;;;;;2.43;2.23;;;36.80;32.00;;;;;;4898440;29;20485;-72
2022/09/04 13:12:00;;;;;;;4.60;2.43;;;37.30;30.90;;;;;;4898270;29;20540;-72
2022/09/04 13:14:57;;;;;;;3.03;2.10;;;37.60;30.60;;;;;;4962349;28;20597;-72
2022/09/04 13:17:30;;;;;;;4.30;2.03;;;37.10;30.10;;;;;;4936120;29;20460;-72
2022/09/04 13:20:09;;;;;;;2.23;2.03;;;37.00;29.70;;;;;;4936033;29;20511;-72
2022/09/04 13:22:46;;;;;;;3.97;2.20;;;37.10;29.80;;;;;;4936033;29;20488;-70
2022/09/04 13:25:26;;;;;;;4.63;2.73;;;37.30;29.30;;;;;;4936205;29;20939;-71
2022/09/04 13:28:03;;;;;;;2.60;2.03;;;37.80;29.90;;;;;;4936234;29;20621;-71
2022/09/04 13:30:33;;;;;;;2.60;2.17;;;38.00;28.40;;;;;;4936243;29;20476;-71
2022/09/04 13:33:16;;;;;;;4.50;2.37;;;38.30;28.90;;;;;;4962102;28;20904;-71
2022/09/04 13:36:01;;;;;;;4.00;2.00;;;38.60;28.20;;;;;;4994078;28;20503;-71
2022/09/04 13:39:15;;;;;;;2.10;1.90;;;38.90;27.20;;;;;;4994306;28;20559;-72
2022/09/04 13:42:24;;;;;;;2.60;1.63;;;38.90;25.90;;;;;;4980785;28;20477;-70
2022/09/04 13:45:07;;;;;;;5.83;2.30;;;37.90;25.80;;;;;;4935956;29;20523;-70
2022/09/04 13:47:48;;;;;;;2.27;1.83;;;37.20;27.00;;;;;;4936444;29;20806;-71
2022/09/04 13:50:21;;;;;;;2.73;2.20;;;37.60;26.80;;;;;;4936623;29;20460;-70
2022/09/04 13:52:54;;;;;;;5.77;2.73;;;37.90;26.70;;;;;;4936028;29;20472;-70
2022/09/04 13:55:25;;;;;;;2.77;1.87;;;37.80;27.00;;;;;;4988109;28;20535;-70
2022/09/04 13:58:09;;;;;;;1.80;1.70;;;37.80;27.40;;;;;;4993794;28;20529;-70
2022/09/04 14:00:44;;;;;;;2.40;1.93;;;38.40;26.30;;;;;;4993799;28;20442;-71
2022/09/04 14:03:17;;;;;;;2.13;1.70;;;38.90;25.20;;;;;;4992786;28;20485;-71
2022/09/04 14:05:44;;;;;;;6.00;1.93;;;38.60;25.40;;;;;;4993689;28;20852;-71
2022/09/04 14:08:16;;;;;;;2.40;2.10;;;37.80;25.00;;;;;;4993608;28;20617;-70
2022/09/04 14:11:05;;;;;;;3.00;2.80;;;36.80;25.60;;;;;;4993333;28;20524;-71
2022/09/04 14:13:50;;;;;;;5.03;2.40;;;36.10;26.30;;;;;;5001071;28;20788;-71
2022/09/04 14:16:18;;;;;;;2.63;2.43;;;35.90;26.80;;;;;;5029235;28;20475;-71
2022/09/04 14:19:08;;;;;;;4.07;2.40;;;36.00;26.70;;;;;;5034415;28;20487;-70